KSNH

Savannah-Hardin County Airport

Savannah, Tennessee, USA
METAR KSNH 181455Z AUTO 00000KT 10SM CLR M09/M11 A3056 RMK A01
Observed Flight Rules
Jan-18 @ 14:55 UTC (18 minutes ago) Visual Flight Rules
Wind Visibility Clouds
Calm 10 miles
  • Clear skies
Temperatures Readings
Current -9°C / 16°F
Dewpoint -11°C / 12°F
Humidity 86%
Altimeter 30.56" Hg
Pressure 1035 hPa
Elevation 144
METAR KSNH 181455Z AUTO 00000KT 10SM CLR M09/M11 A3056 RMK A01
Observed Flight Rules
Jan-18 @ 14:55 UTC
(18 minutes ago)
VFR
Wind Visibility
Calm 10 miles
Clouds
  • Clear skies
Temperature Dewpoint
-9°C / 16°F -11°C / 12°F
Humidity Altimeter Pressure
86% 30.56" Hg 1035 hPa